sensor_id;sensor_type;location;lat;lon;timestamp;pressure;altitude;pressure_sealevel;temperature;humidity
19108;BME280;9686;48.832;9.126;2023-02-08T00:01:41;100159.84;;;1.03;77.40
19108;BME280;9686;48.832;9.126;2023-02-08T00:04:07;100154.53;;;0.73;75.97
19108;BME280;9686;48.832;9.126;2023-02-08T00:06:32;100147.53;;;0.84;76.41
19108;BME280;9686;48.832;9.126;2023-02-08T00:08:58;100149.19;;;1.10;69.25
19108;BME280;9686;48.832;9.126;2023-02-08T00:11:25;100140.00;;;1.00;72.22
19108;BME280;9686;48.832;9.126;2023-02-08T00:13:50;100138.72;;;1.07;70.50
19108;BME280;9686;48.832;9.126;2023-02-08T00:16:16;100134.63;;;1.23;68.58
19108;BME280;9686;48.832;9.126;2023-02-08T00:18:42;100136.91;;;1.19;67.48
19108;BME280;9686;48.832;9.126;2023-02-08T00:21:09;100130.47;;;1.26;68.28
19108;BME280;9686;48.832;9.126;2023-02-08T00:23:35;100123.06;;;1.30;69.41
19108;BME280;9686;48.832;9.126;2023-02-08T00:26:01;100122.63;;;1.37;68.67
19108;BME280;9686;48.832;9.126;2023-02-08T00:28:26;100122.53;;;1.36;67.15
19108;BME280;9686;48.832;9.126;2023-02-08T00:30:52;100113.31;;;1.39;66.31
19108;BME280;9686;48.832;9.126;2023-02-08T00:33:17;100122.44;;;1.34;67.41
19108;BME280;9686;48.832;9.126;2023-02-08T00:35:42;100119.78;;;1.33;66.90
19108;BME280;9686;48.832;9.126;2023-02-08T00:38:08;100112.06;;;1.33;66.25
19108;BME280;9686;48.832;9.126;2023-02-08T00:40:33;100113.44;;;1.28;67.04
19108;BME280;9686;48.832;9.126;2023-02-08T00:42:59;100109.53;;;1.19;68.25
19108;BME280;9686;48.832;9.126;2023-02-08T00:45:24;100124.16;;;1.20;66.61
19108;BME280;9686;48.832;9.126;2023-02-08T00:47:49;100117.34;;;1.21;67.48
19108;BME280;9686;48.832;9.126;2023-02-08T00:50:15;100120.31;;;1.14;68.11
19108;BME280;9686;48.832;9.126;2023-02-08T00:52:40;100126.00;;;1.36;68.47
19108;BME280;9686;48.832;9.126;2023-02-08T00:55:06;100118.66;;;1.14;66.95
19108;BME280;9686;48.832;9.126;2023-02-08T00:57:33;100118.56;;;1.13;67.42
19108;BME280;9686;48.832;9.126;2023-02-08T00:59:59;100121.53;;;1.06;66.25
19108;BME280;9686;48.832;9.126;2023-02-08T01:02:24;100128.88;;;1.28;65.81
19108;BME280;9686;48.832;9.126;2023-02-08T01:04:50;100134.53;;;1.22;63.89
19108;BME280;9686;48.832;9.126;2023-02-08T01:07:15;100131.31;;;1.39;62.62
19108;BME280;9686;48.832;9.126;2023-02-08T01:09:41;100128.47;;;1.35;63.75
19108;BME280;9686;48.832;9.126;2023-02-08T01:12:07;100138.75;;;1.35;63.37
19108;BME280;9686;48.832;9.126;2023-02-08T01:14:32;100136.00;;;1.32;64.26
19108;BME280;9686;48.832;9.126;2023-02-08T01:16:58;100137.94;;;1.36;64.48
19108;BME280;9686;48.832;9.126;2023-02-08T01:19:23;100130.06;;;1.33;64.21
19108;BME280;9686;48.832;9.126;2023-02-08T01:21:48;100129.97;;;1.31;65.31
19108;BME280;9686;48.832;9.126;2023-02-08T01:24:14;100125.66;;;1.45;63.63
19108;BME280;9686;48.832;9.126;2023-02-08T01:26:39;100124.72;;;1.30;63.60
19108;BME280;9686;48.832;9.126;2023-02-08T01:29:05;100134.75;;;1.12;63.89
19108;BME280;9686;48.832;9.126;2023-02-08T01:31:36;100117.69;;;1.27;66.07
19108;BME280;9686;48.832;9.126;2023-02-08T01:34:02;100123.09;;;1.04;67.72
19108;BME280;9686;48.832;9.126;2023-02-08T01:36:29;100119.50;;;0.87;69.09
19108;BME280;9686;48.832;9.126;2023-02-08T01:38:55;100120.25;;;0.99;68.94
19108;BME280;9686;48.832;9.126;2023-02-08T01:41:31;100108.72;;;0.92;70.96
19108;BME280;9686;48.832;9.126;2023-02-08T01:46:46;100115.28;;;0.61;74.22
19108;BME280;9686;48.832;9.126;2023-02-08T01:51:46;100101.75;;;0.64;73.52
19108;BME280;9686;48.832;9.126;2023-02-08T01:54:13;100107.59;;;0.61;74.47
19108;BME280;9686;48.832;9.126;2023-02-08T01:56:42;100102.44;;;0.61;74.27
19108;BME280;9686;48.832;9.126;2023-02-08T01:59:13;100099.09;;;0.49;74.51
19108;BME280;9686;48.832;9.126;2023-02-08T02:01:42;100099.28;;;0.52;75.39
19108;BME280;9686;48.832;9.126;2023-02-08T02:04:09;100093.38;;;0.40;73.41
19108;BME280;9686;48.832;9.126;2023-02-08T02:06:39;100092.47;;;0.26;73.64
19108;BME280;9686;48.832;9.126;2023-02-08T02:09:27;100095.63;;;0.22;74.52
19108;BME280;9686;48.832;9.126;2023-02-08T02:11:56;100087.16;;;0.63;70.10
19108;BME280;9686;48.832;9.126;2023-02-08T02:14:22;100086.25;;;0.49;70.46
19108;BME280;9686;48.832;9.126;2023-02-08T02:16:48;100080.66;;;0.54;72.45
19108;BME280;9686;48.832;9.126;2023-02-08T02:19:39;100078.56;;;0.49;72.01
19108;BME280;9686;48.832;9.126;2023-02-08T02:28:22;100070.56;;;0.44;73.51
19108;BME280;9686;48.832;9.126;2023-02-08T02:41:52;100069.41;;;0.13;77.41
19108;BME280;9686;48.832;9.126;2023-02-08T02:48:04;100065.16;;;0.13;79.93
19108;BME280;9686;48.832;9.126;2023-02-08T02:50:51;100068.03;;;0.05;82.15
19108;BME280;9686;48.832;9.126;2023-02-08T02:53:23;100068.28;;;-0.04;84.92
19108;BME280;9686;48.832;9.126;2023-02-08T02:55:59;100071.06;;;0.25;79.95
19108;BME280;9686;48.832;9.126;2023-02-08T02:58:26;100069.09;;;0.21;80.92
19108;BME280;9686;48.832;9.126;2023-02-08T03:00:54;100060.94;;;0.27;80.27
19108;BME280;9686;48.832;9.126;2023-02-08T03:03:23;100073.03;;;0.16;81.06
19108;BME280;9686;48.832;9.126;2023-02-08T03:05:49;100068.91;;;0.05;81.36
19108;BME280;9686;48.832;9.126;2023-02-08T03:08:27;100077.81;;;-0.28;86.06
19108;BME280;9686;48.832;9.126;2023-02-08T03:11:14;100076.41;;;-0.36;86.60
19108;BME280;9686;48.832;9.126;2023-02-08T03:14:01;100075.63;;;-0.35;87.93
19108;BME280;9686;48.832;9.126;2023-02-08T03:19:49;100079.00;;;-0.61;92.03
19108;BME280;9686;48.832;9.126;2023-02-08T03:27:39;100077.59;;;0.07;84.50
19108;BME280;9686;48.832;9.126;2023-02-08T03:30:15;100080.75;;;0.03;81.93
19108;BME280;9686;48.832;9.126;2023-02-08T03:35:23;100082.56;;;-0.21;89.49
19108;BME280;9686;48.832;9.126;2023-02-08T03:38:05;100078.34;;;-0.07;86.08
19108;BME280;9686;48.832;9.126;2023-02-08T03:40:46;100080.41;;;-0.15;83.36
19108;BME280;9686;48.832;9.126;2023-02-08T03:43:29;100080.22;;;-0.05;83.18
19108;BME280;9686;48.832;9.126;2023-02-08T03:48:25;100080.31;;;-0.03;85.04
19108;BME280;9686;48.832;9.126;2023-02-08T03:50:53;100073.16;;;0.05;81.20
19108;BME280;9686;48.832;9.126;2023-02-08T03:53:21;100073.84;;;0.02;81.48
19108;BME280;9686;48.832;9.126;2023-02-08T03:55:51;100071.00;;;-0.27;83.18
19108;BME280;9686;48.832;9.126;2023-02-08T03:58:26;100077.59;;;-0.44;86.89
19108;BME280;9686;48.832;9.126;2023-02-08T04:01:07;100082.13;;;-0.40;90.06
19108;BME280;9686;48.832;9.126;2023-02-08T04:03:37;100074.13;;;-0.45;87.61
19108;BME280;9686;48.832;9.126;2023-02-08T04:06:03;100077.19;;;-0.50;89.01
19108;BME280;9686;48.832;9.126;2023-02-08T04:08:29;100081.75;;;-0.33;88.42
19108;BME280;9686;48.832;9.126;2023-02-08T04:10:54;100077.19;;;-0.37;88.35
19108;BME280;9686;48.832;9.126;2023-02-08T04:13:19;100078.00;;;-0.38;88.93
19108;BME280;9686;48.832;9.126;2023-02-08T04:15:45;100073.66;;;-0.39;87.84
19108;BME280;9686;48.832;9.126;2023-02-08T04:18:10;100067.16;;;-0.34;87.05
19108;BME280;9686;48.832;9.126;2023-02-08T04:20:36;100078.28;;;-0.47;89.06
19108;BME280;9686;48.832;9.126;2023-02-08T04:23:01;100071.09;;;-0.39;87.22
19108;BME280;9686;48.832;9.126;2023-02-08T04:25:26;100072.25;;;-0.47;87.63
19108;BME280;9686;48.832;9.126;2023-02-08T04:27:51;100064.94;;;-0.54;87.52
19108;BME280;9686;48.832;9.126;2023-02-08T04:30:17;100064.31;;;-0.64;90.71
19108;BME280;9686;48.832;9.126;2023-02-08T04:32:42;100069.59;;;-0.74;92.17
19108;BME280;9686;48.832;9.126;2023-02-08T04:35:08;100070.84;;;-0.80;94.21
19108;BME280;9686;48.832;9.126;2023-02-08T04:37:33;100076.72;;;-0.70;90.79
19108;BME280;9686;48.832;9.126;2023-02-08T04:39:59;100073.66;;;-0.89;90.55
19108;BME280;9686;48.832;9.126;2023-02-08T04:42:24;100064.25;;;-1.02;94.71
19108;BME280;9686;48.832;9.126;2023-02-08T04:44:49;100076.59;;;-0.96;94.10
19108;BME280;9686;48.832;9.126;2023-02-08T04:47:15;100063.47;;;-1.01;95.30
19108;BME280;9686;48.832;9.126;2023-02-08T04:49:40;100069.94;;;-1.06;94.68
19108;BME280;9686;48.832;9.126;2023-02-08T04:52:05;100073.34;;;-0.94;93.92
19108;BME280;9686;48.832;9.126;2023-02-08T04:54:31;100063.44;;;-0.64;89.32
19108;BME280;9686;48.832;9.126;2023-02-08T04:56:56;100058.28;;;-0.77;90.36
19108;BME280;9686;48.832;9.126;2023-02-08T04:59:22;100055.91;;;-0.74;89.84
19108;BME280;9686;48.832;9.126;2023-02-08T05:01:47;100052.00;;;-0.69;90.41
19108;BME280;9686;48.832;9.126;2023-02-08T05:04:12;100047.09;;;-0.53;89.66
19108;BME280;9686;48.832;9.126;2023-02-08T05:06:37;100047.19;;;-0.65;91.00
19108;BME280;9686;48.832;9.126;2023-02-08T05:09:06;100044.44;;;-0.54;91.18
19108;BME280;9686;48.832;9.126;2023-02-08T05:11:31;100043.06;;;-0.87;92.69
19108;BME280;9686;48.832;9.126;2023-02-08T05:13:57;100039.88;;;-0.72;91.32
19108;BME280;9686;48.832;9.126;2023-02-08T05:16:22;100041.00;;;-0.80;90.29
19108;BME280;9686;48.832;9.126;2023-02-08T05:18:47;100042.75;;;-0.92;92.65
19108;BME280;9686;48.832;9.126;2023-02-08T05:21:12;100047.34;;;-0.75;92.45
19108;BME280;9686;48.832;9.126;2023-02-08T05:23:38;100045.47;;;-0.77;92.12
19108;BME280;9686;48.832;9.126;2023-02-08T05:26:08;100044.44;;;-1.04;93.43
19108;BME280;9686;48.832;9.126;2023-02-08T05:28:34;100053.66;;;-0.95;93.33
19108;BME280;9686;48.832;9.126;2023-02-08T05:31:08;100047.13;;;-1.03;92.54
19108;BME280;9686;48.832;9.126;2023-02-08T05:33:33;100051.38;;;-1.15;94.29
19108;BME280;9686;48.832;9.126;2023-02-08T05:35:59;100050.47;;;-1.04;94.21
19108;BME280;9686;48.832;9.126;2023-02-08T05:38:24;100055.34;;;-1.07;95.05
19108;BME280;9686;48.832;9.126;2023-02-08T05:40:49;100055.72;;;-1.14;94.45
19108;BME280;9686;48.832;9.126;2023-02-08T05:43:14;100052.38;;;-1.13;94.60
19108;BME280;9686;48.832;9.126;2023-02-08T05:45:40;100056.75;;;-1.23;94.00
19108;BME280;9686;48.832;9.126;2023-02-08T05:48:05;100055.09;;;-1.23;94.85
19108;BME280;9686;48.832;9.126;2023-02-08T05:50:30;100046.44;;;-1.25;96.61
19108;BME280;9686;48.832;9.126;2023-02-08T05:52:56;100064.44;;;-1.23;94.84
19108;BME280;9686;48.832;9.126;2023-02-08T05:55:21;100050.53;;;-1.27;96.82
19108;BME280;9686;48.832;9.126;2023-02-08T05:57:46;100067.47;;;-1.29;96.92
19108;BME280;9686;48.832;9.126;2023-02-08T06:00:12;100064.56;;;-1.34;95.54
19108;BME280;9686;48.832;9.126;2023-02-08T06:02:38;100051.91;;;-1.07;94.73
19108;BME280;9686;48.832;9.126;2023-02-08T06:05:03;100052.25;;;-1.03;91.49
19108;BME280;9686;48.832;9.126;2023-02-08T06:07:28;100059.56;;;-0.71;89.33
19108;BME280;9686;48.832;9.126;2023-02-08T06:09:55;100068.28;;;-0.80;90.71
19108;BME280;9686;48.832;9.126;2023-02-08T06:12:20;100066.66;;;-0.67;87.02
19108;BME280;9686;48.832;9.126;2023-02-08T06:14:45;100062.38;;;-0.79;87.91
19108;BME280;9686;48.832;9.126;2023-02-08T06:17:11;100063.31;;;-0.90;87.82
19108;BME280;9686;48.832;9.126;2023-02-08T06:19:36;100062.31;;;-1.17;89.61
19108;BME280;9686;48.832;9.126;2023-02-08T06:22:02;100065.69;;;-0.94;90.87
19108;BME280;9686;48.832;9.126;2023-02-08T06:24:27;100066.16;;;-0.99;91.73
19108;BME280;9686;48.832;9.126;2023-02-08T06:26:52;100069.63;;;-0.85;89.63
19108;BME280;9686;48.832;9.126;2023-02-08T06:29:18;100071.16;;;-1.01;90.96
19108;BME280;9686;48.832;9.126;2023-02-08T06:31:43;100069.81;;;-0.96;89.49
19108;BME280;9686;48.832;9.126;2023-02-08T06:34:08;100069.91;;;-0.94;91.03
19108;BME280;9686;48.832;9.126;2023-02-08T06:36:33;100068.34;;;-0.92;88.61
19108;BME280;9686;48.832;9.126;2023-02-08T06:38:59;100068.06;;;-0.83;87.38
19108;BME280;9686;48.832;9.126;2023-02-08T06:41:24;100067.25;;;-0.96;87.83
19108;BME280;9686;48.832;9.126;2023-02-08T06:43:49;100071.06;;;-1.02;89.08
19108;BME280;9686;48.832;9.126;2023-02-08T06:46:15;100073.56;;;-1.27;94.61
19108;BME280;9686;48.832;9.126;2023-02-08T06:48:40;100073.50;;;-1.04;92.21
19108;BME280;9686;48.832;9.126;2023-02-08T06:51:05;100074.72;;;-0.99;90.02
19108;BME280;9686;48.832;9.126;2023-02-08T06:53:31;100068.91;;;-0.96;90.13
19108;BME280;9686;48.832;9.126;2023-02-08T06:55:56;100072.16;;;-0.99;87.81
19108;BME280;9686;48.832;9.126;2023-02-08T06:58:21;100069.22;;;-0.91;87.35
19108;BME280;9686;48.832;9.126;2023-02-08T07:00:47;100075.03;;;-0.94;88.81
19108;BME280;9686;48.832;9.126;2023-02-08T07:03:13;100081.50;;;-0.99;87.13
19108;BME280;9686;48.832;9.126;2023-02-08T07:05:39;100074.72;;;-1.10;90.99
19108;BME280;9686;48.832;9.126;2023-02-08T07:08:05;100083.59;;;-0.94;93.02
19108;BME280;9686;48.832;9.126;2023-02-08T07:10:31;100082.28;;;-1.00;91.80
19108;BME280;9686;48.832;9.126;2023-02-08T07:12:56;100092.53;;;-1.00;92.74
19108;BME280;9686;48.832;9.126;2023-02-08T07:15:21;100090.66;;;-0.78;89.79
19108;BME280;9686;48.832;9.126;2023-02-08T07:17:46;100085.00;;;-0.85;90.45
19108;BME280;9686;48.832;9.126;2023-02-08T07:20:12;100086.44;;;-0.77;89.01
19108;BME280;9686;48.832;9.126;2023-02-08T07:22:38;100093.16;;;-0.91;91.35
19108;BME280;9686;48.832;9.126;2023-02-08T07:25:04;100083.00;;;-0.78;93.97
19108;BME280;9686;48.832;9.126;2023-02-08T07:27:31;100087.97;;;-0.79;93.33
19108;BME280;9686;48.832;9.126;2023-02-08T07:29:56;100088.25;;;-0.88;94.07
19108;BME280;9686;48.832;9.126;2023-02-08T07:32:21;100086.09;;;-0.82;94.96
19108;BME280;9686;48.832;9.126;2023-02-08T07:34:47;100094.66;;;-0.56;92.85
19108;BME280;9686;48.832;9.126;2023-02-08T07:37:12;100095.66;;;-0.54;93.04
19108;BME280;9686;48.832;9.126;2023-02-08T07:39:37;100095.13;;;-0.50;94.54
19108;BME280;9686;48.832;9.126;2023-02-08T07:42:03;100092.31;;;-0.53;92.97
19108;BME280;9686;48.832;9.126;2023-02-08T07:44:30;100083.94;;;-0.26;94.74
19108;BME280;9686;48.832;9.126;2023-02-08T07:46:56;100087.25;;;-0.40;94.57
19108;BME280;9686;48.832;9.126;2023-02-08T07:49:21;100088.88;;;-0.16;91.79
19108;BME280;9686;48.832;9.126;2023-02-08T07:51:46;100082.31;;;0.14;88.15
19108;BME280;9686;48.832;9.126;2023-02-08T07:54:12;100084.19;;;0.17;87.32
19108;BME280;9686;48.832;9.126;2023-02-08T07:56:37;100079.75;;;0.41;86.82
19108;BME280;9686;48.832;9.126;2023-02-08T07:59:02;100081.91;;;0.61;81.61
19108;BME280;9686;48.832;9.126;2023-02-08T08:01:28;100070.97;;;0.64;81.66
19108;BME280;9686;48.832;9.126;2023-02-08T08:03:53;100076.84;;;0.76;81.86
19108;BME280;9686;48.832;9.126;2023-02-08T08:06:19;100070.34;;;0.68;81.96
19108;BME280;9686;48.832;9.126;2023-02-08T08:08:45;100073.50;;;0.77;82.52
19108;BME280;9686;48.832;9.126;2023-02-08T08:11:12;100082.66;;;0.86;80.67
19108;BME280;9686;48.832;9.126;2023-02-08T08:13:38;100081.97;;;0.89;77.35
19108;BME280;9686;48.832;9.126;2023-02-08T08:16:04;100082.53;;;0.98;74.63
19108;BME280;9686;48.832;9.126;2023-02-08T08:18:29;100071.88;;;0.92;77.25
19108;BME280;9686;48.832;9.126;2023-02-08T08:20:55;100074.09;;;0.86;76.20
19108;BME280;9686;48.832;9.126;2023-02-08T08:23:21;100071.59;;;0.87;75.06
19108;BME280;9686;48.832;9.126;2023-02-08T08:25:46;100073.19;;;0.85;76.57
19108;BME280;9686;48.832;9.126;2023-02-08T08:28:11;100083.22;;;1.09;71.36
19108;BME280;9686;48.832;9.126;2023-02-08T08:30:37;100078.53;;;1.16;72.07
19108;BME280;9686;48.832;9.126;2023-02-08T08:33:02;100085.00;;;1.24;68.67
19108;BME280;9686;48.832;9.126;2023-02-08T08:35:27;100085.09;;;1.26;71.04
19108;BME280;9686;48.832;9.126;2023-02-08T08:37:52;100080.09;;;1.42;70.75
19108;BME280;9686;48.832;9.126;2023-02-08T08:40:18;100069.75;;;1.55;70.37
19108;BME280;9686;48.832;9.126;2023-02-08T08:42:43;100069.88;;;1.57;70.02
19108;BME280;9686;48.832;9.126;2023-02-08T08:45:09;100067.31;;;1.57;68.01
19108;BME280;9686;48.832;9.126;2023-02-08T08:47:35;100069.44;;;1.64;67.60
19108;BME280;9686;48.832;9.126;2023-02-08T08:50:00;100064.75;;;1.87;63.79
19108;BME280;9686;48.832;9.126;2023-02-08T08:52:25;100070.34;;;2.09;62.90
19108;BME280;9686;48.832;9.126;2023-02-08T08:54:51;100066.59;;;2.19;61.37
19108;BME280;9686;48.832;9.126;2023-02-08T08:57:16;100063.38;;;2.23;57.58
19108;BME280;9686;48.832;9.126;2023-02-08T08:59:42;100060.97;;;2.40;56.72
19108;BME280;9686;48.832;9.126;2023-02-08T09:02:11;100061.78;;;2.39;55.65
19108;BME280;9686;48.832;9.126;2023-02-08T09:04:37;100055.34;;;2.62;54.65
19108;BME280;9686;48.832;9.126;2023-02-08T09:07:02;100055.34;;;2.62;52.83
19108;BME280;9686;48.832;9.126;2023-02-08T09:09:27;100052.56;;;2.59;52.32
19108;BME280;9686;48.832;9.126;2023-02-08T09:11:52;100047.72;;;2.80;51.93
19108;BME280;9686;48.832;9.126;2023-02-08T09:14:18;100050.75;;;2.73;52.41
19108;BME280;9686;48.832;9.126;2023-02-08T09:16:43;100057.59;;;2.72;52.94
19108;BME280;9686;48.832;9.126;2023-02-08T09:19:13;100050.59;;;2.86;52.18
19108;BME280;9686;48.832;9.126;2023-02-08T09:21:38;100049.19;;;2.91;52.27
19108;BME280;9686;48.832;9.126;2023-02-08T09:24:04;100048.78;;;3.00;51.49
19108;BME280;9686;48.832;9.126;2023-02-08T09:26:30;100041.50;;;2.76;52.97
19108;BME280;9686;48.832;9.126;2023-02-08T09:28:55;100047.09;;;3.00;52.41
19108;BME280;9686;48.832;9.126;2023-02-08T09:31:25;100050.09;;;2.92;51.67
19108;BME280;9686;48.832;9.126;2023-02-08T09:33:52;100043.81;;;3.19;51.12
19108;BME280;9686;48.832;9.126;2023-02-08T09:36:20;100044.69;;;3.20;51.71
19108;BME280;9686;48.832;9.126;2023-02-08T09:38:46;100045.34;;;3.16;51.56
19108;BME280;9686;48.832;9.126;2023-02-08T09:41:46;100049.19;;;3.07;50.43
19108;BME280;9686;48.832;9.126;2023-02-08T09:44:26;100045.28;;;3.14;50.55
19108;BME280;9686;48.832;9.126;2023-02-08T09:47:02;100039.78;;;3.24;49.66
19108;BME280;9686;48.832;9.126;2023-02-08T09:49:33;100043.78;;;3.35;50.84
19108;BME280;9686;48.832;9.126;2023-02-08T09:52:03;100045.00;;;3.26;50.63
19108;BME280;9686;48.832;9.126;2023-02-08T09:54:32;100039.44;;;3.67;49.39
19108;BME280;9686;48.832;9.126;2023-02-08T09:57:00;100042.91;;;3.85;48.92
19108;BME280;9686;48.832;9.126;2023-02-08T09:59:31;100037.59;;;3.82;48.01
19108;BME280;9686;48.832;9.126;2023-02-08T10:02:18;100036.88;;;3.85;49.45
19108;BME280;9686;48.832;9.126;2023-02-08T10:07:16;100034.69;;;4.10;49.56
19108;BME280;9686;48.832;9.126;2023-02-08T10:09:41;100034.19;;;3.99;49.22
19108;BME280;9686;48.832;9.126;2023-02-08T10:24:07;100021.13;;;4.32;48.28
19108;BME280;9686;48.832;9.126;2023-02-08T10:26:45;100018.47;;;4.30;48.66
19108;BME280;9686;48.832;9.126;2023-02-08T10:35:02;100014.00;;;4.44;48.15
19108;BME280;9686;48.832;9.126;2023-02-08T10:37:31;100013.66;;;4.38;47.80
19108;BME280;9686;48.832;9.126;2023-02-08T10:40:11;100004.16;;;4.37;47.62
19108;BME280;9686;48.832;9.126;2023-02-08T10:42:39;100004.16;;;4.55;47.76
19108;BME280;9686;48.832;9.126;2023-02-08T10:45:29;99998.72;;;4.68;47.76
19108;BME280;9686;48.832;9.126;2023-02-08T10:48:04;99998.50;;;4.44;48.74
19108;BME280;9686;48.832;9.126;2023-02-08T10:50:38;99997.91;;;4.32;48.17
19108;BME280;9686;48.832;9.126;2023-02-08T10:53:05;99998.78;;;4.50;47.98
19108;BME280;9686;48.832;9.126;2023-02-08T10:55:41;99995.19;;;4.66;47.53
19108;BME280;9686;48.832;9.126;2023-02-08T10:58:09;99989.78;;;4.79;48.11
19108;BME280;9686;48.832;9.126;2023-02-08T11:00:38;99984.56;;;4.78;47.63
19108;BME280;9686;48.832;9.126;2023-02-08T11:03:20;99988.16;;;5.01;47.31
19108;BME280;9686;48.832;9.126;2023-02-08T11:05:48;99984.09;;;5.25;47.24
19108;BME280;9686;48.832;9.126;2023-02-08T11:08:19;99978.16;;;5.28;45.34
19108;BME280;9686;48.832;9.126;2023-02-08T11:13:24;99972.41;;;5.54;45.60
19108;BME280;9686;48.832;9.126;2023-02-08T11:15:56;99969.19;;;5.60;45.59
19108;BME280;9686;48.832;9.126;2023-02-08T11:18:31;99974.09;;;5.53;45.08
19108;BME280;9686;48.832;9.126;2023-02-08T11:21:19;99968.03;;;5.53;44.32
19108;BME280;9686;48.832;9.126;2023-02-08T11:23:48;99955.06;;;5.51;44.82
19108;BME280;9686;48.832;9.126;2023-02-08T11:26:20;99953.59;;;5.58;44.07
19108;BME280;9686;48.832;9.126;2023-02-08T11:29:16;99940.44;;;5.73;44.04
19108;BME280;9686;48.832;9.126;2023-02-08T11:31:57;99936.34;;;5.99;44.13
19108;BME280;9686;48.832;9.126;2023-02-08T11:34:26;99932.78;;;5.97;45.76
19108;BME280;9686;48.832;9.126;2023-02-08T11:36:51;99928.47;;;5.97;44.53
19108;BME280;9686;48.832;9.126;2023-02-08T11:39:22;99919.25;;;6.25;44.27
19108;BME280;9686;48.832;9.126;2023-02-08T11:41:51;99913.63;;;6.36;43.86
19108;BME280;9686;48.832;9.126;2023-02-08T11:44:31;99920.56;;;6.37;42.97
19108;BME280;9686;48.832;9.126;2023-02-08T11:47:02;99919.47;;;6.31;43.38
19108;BME280;9686;48.832;9.126;2023-02-08T11:49:41;99913.34;;;6.51;43.38
19108;BME280;9686;48.832;9.126;2023-02-08T11:52:19;99907.28;;;6.74;43.04
19108;BME280;9686;48.832;9.126;2023-02-08T11:54:45;99911.25;;;6.89;43.05
19108;BME280;9686;48.832;9.126;2023-02-08T11:57:19;99902.28;;;7.28;43.61
19108;BME280;9686;48.832;9.126;2023-02-08T11:59:49;99893.16;;;8.20;41.92
19108;BME280;9686;48.832;9.126;2023-02-08T12:02:38;99890.19;;;9.28;39.58
19108;BME280;9686;48.832;9.126;2023-02-08T12:05:09;99884.84;;;10.27;37.06
19108;BME280;9686;48.832;9.126;2023-02-08T12:07:55;99880.63;;;10.74;35.33
19108;BME280;9686;48.832;9.126;2023-02-08T12:15:55;99872.44;;;11.99;33.79
19108;BME280;9686;48.832;9.126;2023-02-08T12:21:21;99861.72;;;12.45;32.21
19108;BME280;9686;48.832;9.126;2023-02-08T12:23:53;99857.38;;;12.47;33.29
19108;BME280;9686;48.832;9.126;2023-02-08T12:26:44;99858.16;;;12.40;31.76
19108;BME280;9686;48.832;9.126;2023-02-08T12:30:04;99847.47;;;12.23;31.35
19108;BME280;9686;48.832;9.126;2023-02-08T12:37:49;99845.84;;;9.94;33.68
19108;BME280;9686;48.832;9.126;2023-02-08T12:51:55;99827.34;;;9.11;35.82
19108;BME280;9686;48.832;9.126;2023-02-08T12:55:24;99815.00;;;8.41;36.40
19108;BME280;9686;48.832;9.126;2023-02-08T12:57:30;99811.88;;;8.24;37.32
19108;BME280;9686;48.832;9.126;2023-02-08T13:00:01;99812.22;;;8.33;37.71
19108;BME280;9686;48.832;9.126;2023-02-08T13:04:59;99793.56;;;8.48;38.41
19108;BME280;9686;48.832;9.126;2023-02-08T13:07:41;99789.50;;;8.29;38.71
19108;BME280;9686;48.832;9.126;2023-02-08T13:12:46;99792.31;;;8.65;37.45
19108;BME280;9686;48.832;9.126;2023-02-08T13:16:02;99785.53;;;9.05;36.96
19108;BME280;9686;48.832;9.126;2023-02-08T13:18:20;99783.22;;;8.83;35.70
19108;BME280;9686;48.832;9.126;2023-02-08T13:20:50;99783.41;;;8.57;36.27
19108;BME280;9686;48.832;9.126;2023-02-08T13:25:41;99777.88;;;8.45;36.79
19108;BME280;9686;48.832;9.126;2023-02-08T13:28:17;99771.50;;;8.34;36.03
19108;BME280;9686;48.832;9.126;2023-02-08T13:30:45;99764.13;;;8.49;36.78
19108;BME280;9686;48.832;9.126;2023-02-08T13:33:22;99762.97;;;8.38;37.49
19108;BME280;9686;48.832;9.126;2023-02-08T13:35:51;99762.72;;;8.32;37.71
19108;BME280;9686;48.832;9.126;2023-02-08T13:41:00;99766.00;;;8.25;37.42
19108;BME280;9686;48.832;9.126;2023-02-08T13:43:41;99759.94;;;8.24;37.31
19108;BME280;9686;48.832;9.126;2023-02-08T13:46:10;99764.59;;;8.34;37.67
19108;BME280;9686;48.832;9.126;2023-02-08T13:56:47;99767.34;;;8.11;38.10
19108;BME280;9686;48.832;9.126;2023-02-08T13:59:35;99763.03;;;8.11;38.25
19108;BME280;9686;48.832;9.126;2023-02-08T14:04:48;99752.22;;;7.97;39.10
19108;BME280;9686;48.832;9.126;2023-02-08T14:07:15;99759.03;;;7.64;39.41
19108;BME280;9686;48.832;9.126;2023-02-08T14:13:38;99768.00;;;7.75;39.71
19108;BME280;9686;48.832;9.126;2023-02-08T14:16:36;99759.94;;;7.94;39.42
19108;BME280;9686;48.832;9.126;2023-02-08T14:22:01;99763.03;;;8.11;39.63
19108;BME280;9686;48.832;9.126;2023-02-08T14:24:30;99767.63;;;7.91;39.26
19108;BME280;9686;48.832;9.126;2023-02-08T14:27:14;99778.84;;;7.62;39.97
19108;BME280;9686;48.832;9.126;2023-02-08T14:29:42;99768.44;;;7.60;39.80
19108;BME280;9686;48.832;9.126;2023-02-08T14:32:07;99774.50;;;7.61;40.60
19108;BME280;9686;48.832;9.126;2023-02-08T14:34:35;99765.88;;;7.62;40.24
19108;BME280;9686;48.832;9.126;2023-02-08T14:37:26;99760.94;;;7.42;41.26
19108;BME280;9686;48.832;9.126;2023-02-08T14:42:59;99768.53;;;7.63;41.24
19108;BME280;9686;48.832;9.126;2023-02-08T14:45:36;99761.34;;;7.55;41.73
19108;BME280;9686;48.832;9.126;2023-02-08T14:48:41;99768.97;;;7.50;41.06
19108;BME280;9686;48.832;9.126;2023-02-08T14:54:01;99762.41;;;7.07;42.57
19108;BME280;9686;48.832;9.126;2023-02-08T14:56:34;99764.59;;;7.22;42.22
19108;BME280;9686;48.832;9.126;2023-02-08T14:59:12;99755.63;;;7.11;41.80
19108;BME280;9686;48.832;9.126;2023-02-08T15:01:51;99760.34;;;7.24;42.19
19108;BME280;9686;48.832;9.126;2023-02-08T15:04:19;99755.63;;;7.11;42.60
19108;BME280;9686;48.832;9.126;2023-02-08T15:09:42;99761.50;;;6.80;42.81
19108;BME280;9686;48.832;9.126;2023-02-08T15:12:24;99757.41;;;6.87;42.89
19108;BME280;9686;48.832;9.126;2023-02-08T15:14:53;99765.84;;;6.81;43.40
19108;BME280;9686;48.832;9.126;2023-02-08T15:17:40;99767.22;;;6.71;43.18
19108;BME280;9686;48.832;9.126;2023-02-08T15:20:16;99765.22;;;6.88;43.35
19108;BME280;9686;48.832;9.126;2023-02-08T15:22:43;99772.09;;;6.62;43.32
19108;BME280;9686;48.832;9.126;2023-02-08T15:27:49;99775.53;;;6.37;44.24
19108;BME280;9686;48.832;9.126;2023-02-08T15:30:26;99756.84;;;6.71;43.72